sensor_id;sensor_type;location;lat;lon;timestamp;P1;durP1;ratioP1;P2;durP2;ratioP2
50900;SDS011;36879;51.416;6.678;2022-09-28T00:01:07;14.48;;;9.05;;
50900;SDS011;36879;51.416;6.678;2022-09-28T00:03:34;16.08;;;9.18;;
50900;SDS011;36879;51.416;6.678;2022-09-28T00:06:05;14.95;;;10.13;;
50900;SDS011;36879;51.416;6.678;2022-09-28T00:08:32;21.48;;;10.48;;
50900;SDS011;36879;51.416;6.678;2022-09-28T00:10:59;18.55;;;9.75;;
50900;SDS011;36879;51.416;6.678;2022-09-28T00:13:25;18.02;;;10.45;;
50900;SDS011;36879;51.416;6.678;2022-09-28T00:16:00;24.42;;;9.95;;
50900;SDS011;36879;51.416;6.678;2022-09-28T00:18:27;16.52;;;9.63;;
50900;SDS011;36879;51.416;6.678;2022-09-28T00:21:03;18.83;;;10.75;;
50900;SDS011;36879;51.416;6.678;2022-09-28T00:23:30;17.00;;;10.35;;
50900;SDS011;36879;51.416;6.678;2022-09-28T00:26:00;19.83;;;11.10;;
50900;SDS011;36879;51.416;6.678;2022-09-28T00:28:26;20.38;;;12.10;;
50900;SDS011;36879;51.416;6.678;2022-09-28T00:30:55;20.70;;;11.23;;
50900;SDS011;36879;51.416;6.678;2022-09-28T00:33:21;22.73;;;11.77;;
50900;SDS011;36879;51.416;6.678;2022-09-28T00:35:56;15.82;;;9.95;;
50900;SDS011;36879;51.416;6.678;2022-09-28T00:38:24;17.38;;;10.45;;
50900;SDS011;36879;51.416;6.678;2022-09-28T00:40:51;22.20;;;12.45;;
50900;SDS011;36879;51.416;6.678;2022-09-28T00:43:18;22.77;;;11.23;;
50900;SDS011;36879;51.416;6.678;2022-09-28T00:45:44;19.17;;;10.68;;
50900;SDS011;36879;51.416;6.678;2022-09-28T00:48:11;17.70;;;10.88;;
50900;SDS011;36879;51.416;6.678;2022-09-28T00:50:37;20.08;;;10.85;;
50900;SDS011;36879;51.416;6.678;2022-09-28T00:53:05;25.77;;;12.57;;
50900;SDS011;36879;51.416;6.678;2022-09-28T00:55:44;21.40;;;11.93;;
50900;SDS011;36879;51.416;6.678;2022-09-28T00:58:12;22.88;;;11.73;;
50900;SDS011;36879;51.416;6.678;2022-09-28T01:00:39;18.08;;;11.43;;
50900;SDS011;36879;51.416;6.678;2022-09-28T01:03:06;22.92;;;13.68;;
50900;SDS011;36879;51.416;6.678;2022-09-28T01:05:32;26.33;;;14.35;;
50900;SDS011;36879;51.416;6.678;2022-09-28T01:07:59;19.75;;;10.95;;
50900;SDS011;36879;51.416;6.678;2022-09-28T01:10:26;28.88;;;14.10;;
50900;SDS011;36879;51.416;6.678;2022-09-28T01:12:53;27.08;;;13.10;;
50900;SDS011;36879;51.416;6.678;2022-09-28T01:15:20;24.05;;;12.55;;
50900;SDS011;36879;51.416;6.678;2022-09-28T01:30:28;29.88;;;13.82;;
50900;SDS011;36879;51.416;6.678;2022-09-28T01:33:05;24.27;;;14.57;;
50900;SDS011;36879;51.416;6.678;2022-09-28T01:35:34;26.25;;;13.95;;
50900;SDS011;36879;51.416;6.678;2022-09-28T01:38:01;26.90;;;14.88;;
50900;SDS011;36879;51.416;6.678;2022-09-28T01:40:29;25.10;;;13.57;;
50900;SDS011;36879;51.416;6.678;2022-09-28T01:43:04;28.00;;;13.77;;
50900;SDS011;36879;51.416;6.678;2022-09-28T01:45:32;23.30;;;12.82;;
50900;SDS011;36879;51.416;6.678;2022-09-28T01:48:01;23.77;;;14.70;;
50900;SDS011;36879;51.416;6.678;2022-09-28T01:50:28;32.58;;;16.10;;
50900;SDS011;36879;51.416;6.678;2022-09-28T01:55:27;23.02;;;13.75;;
50900;SDS011;36879;51.416;6.678;2022-09-28T01:58:00;25.80;;;14.77;;
50900;SDS011;36879;51.416;6.678;2022-09-28T02:00:28;25.30;;;15.73;;
50900;SDS011;36879;51.416;6.678;2022-09-28T02:02:57;28.67;;;15.88;;
50900;SDS011;36879;51.416;6.678;2022-09-28T02:05:29;25.95;;;15.82;;
50900;SDS011;36879;51.416;6.678;2022-09-28T02:10:38;27.33;;;16.23;;
50900;SDS011;36879;51.416;6.678;2022-09-28T02:15:38;30.48;;;16.88;;
50900;SDS011;36879;51.416;6.678;2022-09-28T02:18:05;29.83;;;17.10;;
50900;SDS011;36879;51.416;6.678;2022-09-28T02:20:31;31.65;;;17.23;;
50900;SDS011;36879;51.416;6.678;2022-09-28T02:22:59;36.08;;;19.75;;
50900;SDS011;36879;51.416;6.678;2022-09-28T02:25:33;39.97;;;20.73;;
50900;SDS011;36879;51.416;6.678;2022-09-28T02:28:00;45.85;;;20.75;;
50900;SDS011;36879;51.416;6.678;2022-09-28T02:30:28;36.05;;;20.55;;
50900;SDS011;36879;51.416;6.678;2022-09-28T02:32:56;34.30;;;20.98;;
50900;SDS011;36879;51.416;6.678;2022-09-28T02:35:23;41.45;;;20.60;;
50900;SDS011;36879;51.416;6.678;2022-09-28T02:37:50;37.05;;;20.30;;
50900;SDS011;36879;51.416;6.678;2022-09-28T02:40:19;36.22;;;19.25;;
50900;SDS011;36879;51.416;6.678;2022-09-28T02:42:57;46.30;;;21.63;;
50900;SDS011;36879;51.416;6.678;2022-09-28T02:45:40;49.28;;;23.50;;
50900;SDS011;36879;51.416;6.678;2022-09-28T02:48:14;40.92;;;19.67;;
50900;SDS011;36879;51.416;6.678;2022-09-28T02:51:04;54.50;;;21.55;;
50900;SDS011;36879;51.416;6.678;2022-09-28T02:53:44;36.45;;;18.95;;
50900;SDS011;36879;51.416;6.678;2022-09-28T02:58:59;62.35;;;23.77;;
50900;SDS011;36879;51.416;6.678;2022-09-28T03:01:33;44.20;;;21.17;;
50900;SDS011;36879;51.416;6.678;2022-09-28T03:06:47;49.75;;;23.90;;
50900;SDS011;36879;51.416;6.678;2022-09-28T03:09:25;49.47;;;23.95;;
50900;SDS011;36879;51.416;6.678;2022-09-28T03:11:57;45.70;;;23.20;;
50900;SDS011;36879;51.416;6.678;2022-09-28T03:14:24;38.67;;;22.10;;
50900;SDS011;36879;51.416;6.678;2022-09-28T03:16:50;47.47;;;23.98;;
50900;SDS011;36879;51.416;6.678;2022-09-28T03:19:17;51.20;;;25.95;;
50900;SDS011;36879;51.416;6.678;2022-09-28T03:21:45;40.97;;;21.15;;
50900;SDS011;36879;51.416;6.678;2022-09-28T03:24:11;57.20;;;26.33;;
50900;SDS011;36879;51.416;6.678;2022-09-28T03:26:37;43.50;;;23.92;;
50900;SDS011;36879;51.416;6.678;2022-09-28T03:29:04;46.30;;;24.08;;
50900;SDS011;36879;51.416;6.678;2022-09-28T03:31:30;41.75;;;23.58;;
50900;SDS011;36879;51.416;6.678;2022-09-28T03:33:56;44.10;;;23.25;;
50900;SDS011;36879;51.416;6.678;2022-09-28T03:36:22;51.60;;;25.23;;
50900;SDS011;36879;51.416;6.678;2022-09-28T03:38:50;44.20;;;26.08;;
50900;SDS011;36879;51.416;6.678;2022-09-28T03:41:17;47.22;;;27.23;;
50900;SDS011;36879;51.416;6.678;2022-09-28T03:43:43;47.78;;;27.50;;
50900;SDS011;36879;51.416;6.678;2022-09-28T03:46:09;51.42;;;28.40;;
50900;SDS011;36879;51.416;6.678;2022-09-28T03:48:35;54.63;;;28.92;;
50900;SDS011;36879;51.416;6.678;2022-09-28T03:51:02;50.25;;;29.02;;
50900;SDS011;36879;51.416;6.678;2022-09-28T03:53:29;56.97;;;31.38;;
50900;SDS011;36879;51.416;6.678;2022-09-28T03:56:00;60.03;;;30.70;;
50900;SDS011;36879;51.416;6.678;2022-09-28T03:58:26;66.22;;;34.20;;
50900;SDS011;36879;51.416;6.678;2022-09-28T04:00:52;66.82;;;36.70;;
50900;SDS011;36879;51.416;6.678;2022-09-28T04:03:18;63.38;;;31.60;;
50900;SDS011;36879;51.416;6.678;2022-09-28T04:05:48;61.67;;;32.78;;
50900;SDS011;36879;51.416;6.678;2022-09-28T04:08:14;62.90;;;31.63;;
50900;SDS011;36879;51.416;6.678;2022-09-28T04:10:40;58.75;;;32.45;;
50900;SDS011;36879;51.416;6.678;2022-09-28T04:13:06;56.33;;;30.80;;
50900;SDS011;36879;51.416;6.678;2022-09-28T04:15:32;59.95;;;34.53;;
50900;SDS011;36879;51.416;6.678;2022-09-28T04:17:59;60.55;;;33.28;;
50900;SDS011;36879;51.416;6.678;2022-09-28T04:20:25;64.82;;;32.92;;
50900;SDS011;36879;51.416;6.678;2022-09-28T04:22:51;64.68;;;34.40;;
50900;SDS011;36879;51.416;6.678;2022-09-28T04:25:17;73.85;;;37.10;;
50900;SDS011;36879;51.416;6.678;2022-09-28T04:27:43;75.68;;;37.03;;
50900;SDS011;36879;51.416;6.678;2022-09-28T04:30:27;69.63;;;36.53;;
50900;SDS011;36879;51.416;6.678;2022-09-28T04:32:53;73.30;;;35.58;;
50900;SDS011;36879;51.416;6.678;2022-09-28T04:35:19;72.90;;;37.05;;
50900;SDS011;36879;51.416;6.678;2022-09-28T04:37:45;64.97;;;35.35;;
50900;SDS011;36879;51.416;6.678;2022-09-28T04:40:11;70.22;;;36.35;;
50900;SDS011;36879;51.416;6.678;2022-09-28T04:42:37;69.95;;;33.97;;
50900;SDS011;36879;51.416;6.678;2022-09-28T04:45:03;70.82;;;35.20;;
50900;SDS011;36879;51.416;6.678;2022-09-28T04:47:30;73.80;;;37.47;;
50900;SDS011;36879;51.416;6.678;2022-09-28T04:49:56;64.50;;;35.10;;
50900;SDS011;36879;51.416;6.678;2022-09-28T04:52:22;64.00;;;36.92;;
50900;SDS011;36879;51.416;6.678;2022-09-28T04:54:48;69.47;;;36.13;;
50900;SDS011;36879;51.416;6.678;2022-09-28T04:57:14;73.38;;;37.85;;
50900;SDS011;36879;51.416;6.678;2022-09-28T04:59:40;74.82;;;39.22;;
50900;SDS011;36879;51.416;6.678;2022-09-28T05:02:06;84.10;;;38.00;;
50900;SDS011;36879;51.416;6.678;2022-09-28T05:04:32;83.15;;;42.40;;
50900;SDS011;36879;51.416;6.678;2022-09-28T05:06:58;77.35;;;39.10;;
50900;SDS011;36879;51.416;6.678;2022-09-28T05:09:24;75.55;;;39.13;;
50900;SDS011;36879;51.416;6.678;2022-09-28T05:11:50;88.65;;;40.60;;
50900;SDS011;36879;51.416;6.678;2022-09-28T05:14:19;70.57;;;37.08;;
50900;SDS011;36879;51.416;6.678;2022-09-28T05:16:48;76.00;;;39.45;;
50900;SDS011;36879;51.416;6.678;2022-09-28T05:19:14;71.72;;;37.65;;
50900;SDS011;36879;51.416;6.678;2022-09-28T05:21:44;90.90;;;43.47;;
50900;SDS011;36879;51.416;6.678;2022-09-28T05:24:10;73.82;;;39.10;;
50900;SDS011;36879;51.416;6.678;2022-09-28T05:26:37;82.88;;;41.40;;
50900;SDS011;36879;51.416;6.678;2022-09-28T05:29:03;82.47;;;40.22;;
50900;SDS011;36879;51.416;6.678;2022-09-28T05:31:29;90.00;;;43.72;;
50900;SDS011;36879;51.416;6.678;2022-09-28T05:33:56;83.10;;;40.22;;
50900;SDS011;36879;51.416;6.678;2022-09-28T05:36:22;90.95;;;42.65;;
50900;SDS011;36879;51.416;6.678;2022-09-28T05:38:51;82.53;;;38.50;;
50900;SDS011;36879;51.416;6.678;2022-09-28T05:41:17;82.32;;;41.53;;
50900;SDS011;36879;51.416;6.678;2022-09-28T05:43:43;84.45;;;41.17;;
50900;SDS011;36879;51.416;6.678;2022-09-28T05:46:09;76.95;;;39.17;;
50900;SDS011;36879;51.416;6.678;2022-09-28T05:48:35;81.53;;;40.00;;
50900;SDS011;36879;51.416;6.678;2022-09-28T05:51:01;76.25;;;38.72;;
50900;SDS011;36879;51.416;6.678;2022-09-28T05:53:28;90.65;;;40.85;;
50900;SDS011;36879;51.416;6.678;2022-09-28T05:55:57;76.18;;;39.25;;
50900;SDS011;36879;51.416;6.678;2022-09-28T05:58:23;79.53;;;38.67;;
50900;SDS011;36879;51.416;6.678;2022-09-28T06:00:55;71.72;;;37.88;;
50900;SDS011;36879;51.416;6.678;2022-09-28T06:03:22;80.93;;;39.65;;
50900;SDS011;36879;51.416;6.678;2022-09-28T06:05:48;73.85;;;37.13;;
50900;SDS011;36879;51.416;6.678;2022-09-28T06:08:14;96.05;;;40.97;;
50900;SDS011;36879;51.416;6.678;2022-09-28T06:10:40;75.38;;;37.70;;
50900;SDS011;36879;51.416;6.678;2022-09-28T06:13:06;71.35;;;35.38;;
50900;SDS011;36879;51.416;6.678;2022-09-28T06:15:33;66.43;;;35.70;;
50900;SDS011;36879;51.416;6.678;2022-09-28T06:18:00;74.10;;;38.15;;
50900;SDS011;36879;51.416;6.678;2022-09-28T06:20:27;62.22;;;33.95;;
50900;SDS011;36879;51.416;6.678;2022-09-28T06:22:53;74.75;;;35.40;;
50900;SDS011;36879;51.416;6.678;2022-09-28T06:25:19;68.15;;;33.92;;
50900;SDS011;36879;51.416;6.678;2022-09-28T06:27:59;57.92;;;32.30;;
50900;SDS011;36879;51.416;6.678;2022-09-28T06:30:26;61.85;;;34.10;;
50900;SDS011;36879;51.416;6.678;2022-09-28T06:32:53;58.60;;;31.40;;
50900;SDS011;36879;51.416;6.678;2022-09-28T06:35:20;69.93;;;32.78;;
50900;SDS011;36879;51.416;6.678;2022-09-28T06:37:46;58.70;;;30.08;;
50900;SDS011;36879;51.416;6.678;2022-09-28T06:40:12;62.38;;;31.75;;
50900;SDS011;36879;51.416;6.678;2022-09-28T06:42:38;49.25;;;25.48;;
50900;SDS011;36879;51.416;6.678;2022-09-28T06:45:04;71.90;;;31.35;;
50900;SDS011;36879;51.416;6.678;2022-09-28T06:47:30;52.50;;;28.63;;
50900;SDS011;36879;51.416;6.678;2022-09-28T06:49:57;56.42;;;29.83;;
50900;SDS011;36879;51.416;6.678;2022-09-28T06:52:23;48.33;;;27.63;;
50900;SDS011;36879;51.416;6.678;2022-09-28T06:54:50;49.45;;;27.08;;
50900;SDS011;36879;51.416;6.678;2022-09-28T06:57:16;50.30;;;28.02;;
50900;SDS011;36879;51.416;6.678;2022-09-28T06:59:42;48.90;;;27.50;;
50900;SDS011;36879;51.416;6.678;2022-09-28T07:02:11;48.63;;;26.38;;
50900;SDS011;36879;51.416;6.678;2022-09-28T07:04:41;46.45;;;26.67;;
50900;SDS011;36879;51.416;6.678;2022-09-28T07:07:08;46.58;;;24.95;;
50900;SDS011;36879;51.416;6.678;2022-09-28T07:09:34;43.70;;;24.75;;
50900;SDS011;36879;51.416;6.678;2022-09-28T07:12:00;45.20;;;25.75;;
50900;SDS011;36879;51.416;6.678;2022-09-28T07:14:28;44.63;;;24.02;;
50900;SDS011;36879;51.416;6.678;2022-09-28T07:16:55;46.90;;;26.38;;
50900;SDS011;36879;51.416;6.678;2022-09-28T07:19:21;39.65;;;23.52;;
50900;SDS011;36879;51.416;6.678;2022-09-28T07:21:47;41.45;;;22.77;;
50900;SDS011;36879;51.416;6.678;2022-09-28T07:24:13;48.85;;;25.08;;
50900;SDS011;36879;51.416;6.678;2022-09-28T07:26:39;44.90;;;23.67;;
50900;SDS011;36879;51.416;6.678;2022-09-28T07:29:05;34.97;;;22.30;;
50900;SDS011;36879;51.416;6.678;2022-09-28T07:31:31;47.40;;;30.35;;
50900;SDS011;36879;51.416;6.678;2022-09-28T07:33:58;48.00;;;27.52;;
50900;SDS011;36879;51.416;6.678;2022-09-28T07:36:24;38.00;;;22.48;;
50900;SDS011;36879;51.416;6.678;2022-09-28T07:38:50;43.70;;;23.33;;
50900;SDS011;36879;51.416;6.678;2022-09-28T07:41:16;44.72;;;24.25;;
50900;SDS011;36879;51.416;6.678;2022-09-28T07:43:50;41.10;;;24.58;;
50900;SDS011;36879;51.416;6.678;2022-09-28T07:46:17;38.45;;;23.10;;
50900;SDS011;36879;51.416;6.678;2022-09-28T07:48:45;34.70;;;21.70;;
50900;SDS011;36879;51.416;6.678;2022-09-28T07:51:11;37.50;;;23.10;;
50900;SDS011;36879;51.416;6.678;2022-09-28T07:53:37;41.50;;;25.45;;
50900;SDS011;36879;51.416;6.678;2022-09-28T07:56:03;39.58;;;22.27;;
50900;SDS011;36879;51.416;6.678;2022-09-28T07:58:31;40.90;;;23.98;;
50900;SDS011;36879;51.416;6.678;2022-09-28T08:00:57;34.53;;;22.27;;
50900;SDS011;36879;51.416;6.678;2022-09-28T08:03:25;36.97;;;22.52;;
50900;SDS011;36879;51.416;6.678;2022-09-28T08:05:56;44.72;;;25.05;;
50900;SDS011;36879;51.416;6.678;2022-09-28T08:08:22;45.00;;;28.48;;
50900;SDS011;36879;51.416;6.678;2022-09-28T08:10:48;40.53;;;23.67;;
50900;SDS011;36879;51.416;6.678;2022-09-28T08:13:16;40.25;;;24.17;;
50900;SDS011;36879;51.416;6.678;2022-09-28T08:15:42;35.38;;;19.92;;
50900;SDS011;36879;51.416;6.678;2022-09-28T08:18:09;35.28;;;22.98;;
50900;SDS011;36879;51.416;6.678;2022-09-28T08:20:35;34.17;;;21.65;;
50900;SDS011;36879;51.416;6.678;2022-09-28T08:23:20;32.72;;;20.95;;
50900;SDS011;36879;51.416;6.678;2022-09-28T08:25:47;29.27;;;18.38;;
50900;SDS011;36879;51.416;6.678;2022-09-28T08:28:14;35.20;;;22.67;;
50900;SDS011;36879;51.416;6.678;2022-09-28T08:30:41;34.97;;;24.35;;
50900;SDS011;36879;51.416;6.678;2022-09-28T08:33:08;27.13;;;20.27;;
50900;SDS011;36879;51.416;6.678;2022-09-28T08:35:34;25.92;;;19.10;;
50900;SDS011;36879;51.416;6.678;2022-09-28T08:38:00;27.50;;;19.17;;
50900;SDS011;36879;51.416;6.678;2022-09-28T08:40:27;28.60;;;18.42;;
50900;SDS011;36879;51.416;6.678;2022-09-28T08:42:55;26.33;;;15.52;;
50900;SDS011;36879;51.416;6.678;2022-09-28T08:45:26;21.52;;;16.20;;
50900;SDS011;36879;51.416;6.678;2022-09-28T08:47:54;27.25;;;19.00;;
50900;SDS011;36879;51.416;6.678;2022-09-28T08:51:03;22.73;;;15.65;;
50900;SDS011;36879;51.416;6.678;2022-09-28T08:53:47;26.15;;;16.50;;
50900;SDS011;36879;51.416;6.678;2022-09-28T08:59:01;25.85;;;18.83;;
50900;SDS011;36879;51.416;6.678;2022-09-28T09:01:30;23.55;;;16.80;;
50900;SDS011;36879;51.416;6.678;2022-09-28T09:03:57;27.52;;;18.88;;
50900;SDS011;36879;51.416;6.678;2022-09-28T09:06:27;28.02;;;17.98;;
50900;SDS011;36879;51.416;6.678;2022-09-28T09:09:00;21.77;;;16.08;;
50900;SDS011;36879;51.416;6.678;2022-09-28T09:11:36;26.23;;;18.17;;
50900;SDS011;36879;51.416;6.678;2022-09-28T09:19:26;21.70;;;15.88;;
50900;SDS011;36879;51.416;6.678;2022-09-28T09:22:02;20.60;;;15.02;;
50900;SDS011;36879;51.416;6.678;2022-09-28T09:24:37;21.08;;;15.05;;
50900;SDS011;36879;51.416;6.678;2022-09-28T09:27:32;16.40;;;12.65;;
50900;SDS011;36879;51.416;6.678;2022-09-28T09:30:03;21.80;;;12.98;;
50900;SDS011;36879;51.416;6.678;2022-09-28T09:35:08;14.18;;;9.20;;
50900;SDS011;36879;51.416;6.678;2022-09-28T09:48:32;9.68;;;7.82;;
50900;SDS011;36879;51.416;6.678;2022-09-28T09:51:00;9.55;;;6.72;;
50900;SDS011;36879;51.416;6.678;2022-09-28T09:53:28;8.27;;;5.97;;
50900;SDS011;36879;51.416;6.678;2022-09-28T09:56:14;7.55;;;5.00;;
50900;SDS011;36879;51.416;6.678;2022-09-28T09:58:42;11.05;;;5.95;;
50900;SDS011;36879;51.416;6.678;2022-09-28T10:01:12;7.85;;;5.60;;
50900;SDS011;36879;51.416;6.678;2022-09-28T10:03:40;6.97;;;5.72;;
50900;SDS011;36879;51.416;6.678;2022-09-28T10:06:11;7.50;;;5.53;;
50900;SDS011;36879;51.416;6.678;2022-09-28T10:08:39;7.40;;;6.25;;
50900;SDS011;36879;51.416;6.678;2022-09-28T10:11:07;13.90;;;7.60;;
50900;SDS011;36879;51.416;6.678;2022-09-28T10:13:35;7.70;;;5.60;;
50900;SDS011;36879;51.416;6.678;2022-09-28T10:16:01;9.82;;;6.25;;
50900;SDS011;36879;51.416;6.678;2022-09-28T10:18:27;7.95;;;6.20;;
50900;SDS011;36879;51.416;6.678;2022-09-28T10:20:54;8.35;;;6.18;;
50900;SDS011;36879;51.416;6.678;2022-09-28T10:23:21;7.25;;;5.53;;
50900;SDS011;36879;51.416;6.678;2022-09-28T10:25:50;8.02;;;5.63;;
50900;SDS011;36879;51.416;6.678;2022-09-28T10:28:18;5.47;;;4.75;;
50900;SDS011;36879;51.416;6.678;2022-09-28T10:30:46;6.45;;;4.30;;
50900;SDS011;36879;51.416;6.678;2022-09-28T10:33:31;5.53;;;4.15;;
50900;SDS011;36879;51.416;6.678;2022-09-28T10:35:58;4.35;;;2.88;;
50900;SDS011;36879;51.416;6.678;2022-09-28T10:38:24;4.78;;;3.38;;
50900;SDS011;36879;51.416;6.678;2022-09-28T10:40:51;3.67;;;2.55;;
50900;SDS011;36879;51.416;6.678;2022-09-28T10:48:47;3.13;;;2.20;;
50900;SDS011;36879;51.416;6.678;2022-09-28T10:51:15;4.75;;;2.63;;
50900;SDS011;36879;51.416;6.678;2022-09-28T10:53:41;3.55;;;2.22;;
50900;SDS011;36879;51.416;6.678;2022-09-28T10:56:20;3.92;;;2.15;;
50900;SDS011;36879;51.416;6.678;2022-09-28T10:58:47;3.33;;;2.35;;
50900;SDS011;36879;51.416;6.678;2022-09-28T11:01:14;3.10;;;2.30;;
50900;SDS011;36879;51.416;6.678;2022-09-28T11:03:49;3.83;;;2.80;;
50900;SDS011;36879;51.416;6.678;2022-09-28T11:06:21;5.13;;;2.97;;
50900;SDS011;36879;51.416;6.678;2022-09-28T11:08:48;4.18;;;3.28;;
50900;SDS011;36879;51.416;6.678;2022-09-28T11:11:15;4.78;;;2.80;;
50900;SDS011;36879;51.416;6.678;2022-09-28T11:13:46;5.43;;;3.33;;
50900;SDS011;36879;51.416;6.678;2022-09-28T11:16:23;6.50;;;3.13;;
50900;SDS011;36879;51.416;6.678;2022-09-28T11:18:50;4.90;;;2.97;;
50900;SDS011;36879;51.416;6.678;2022-09-28T11:21:29;4.22;;;2.58;;
50900;SDS011;36879;51.416;6.678;2022-09-28T11:24:00;4.10;;;2.53;;
50900;SDS011;36879;51.416;6.678;2022-09-28T11:26:36;3.85;;;2.58;;
50900;SDS011;36879;51.416;6.678;2022-09-28T11:29:03;3.53;;;2.78;;
50900;SDS011;36879;51.416;6.678;2022-09-28T11:31:31;5.00;;;2.40;;
50900;SDS011;36879;51.416;6.678;2022-09-28T11:34:05;6.68;;;2.60;;
50900;SDS011;36879;51.416;6.678;2022-09-28T11:39:11;4.43;;;3.10;;
50900;SDS011;36879;51.416;6.678;2022-09-28T11:52:19;3.80;;;2.90;;
50900;SDS011;36879;51.416;6.678;2022-09-28T11:54:56;3.67;;;2.38;;
50900;SDS011;36879;51.416;6.678;2022-09-28T11:57:25;4.53;;;2.30;;
50900;SDS011;36879;51.416;6.678;2022-09-28T11:59:56;3.50;;;2.20;;
50900;SDS011;36879;51.416;6.678;2022-09-28T12:02:28;4.38;;;2.05;;
50900;SDS011;36879;51.416;6.678;2022-09-28T12:04:58;3.45;;;2.20;;
50900;SDS011;36879;51.416;6.678;2022-09-28T12:09:57;3.05;;;2.30;;
50900;SDS011;36879;51.416;6.678;2022-09-28T12:12:29;2.60;;;1.80;;
50900;SDS011;36879;51.416;6.678;2022-09-28T12:14:58;3.90;;;2.40;;
50900;SDS011;36879;51.416;6.678;2022-09-28T12:17:28;3.50;;;2.08;;
50900;SDS011;36879;51.416;6.678;2022-09-28T12:19:58;3.25;;;1.85;;
50900;SDS011;36879;51.416;6.678;2022-09-28T12:22:33;2.13;;;1.45;;
50900;SDS011;36879;51.416;6.678;2022-09-28T12:25:01;5.18;;;1.80;;
50900;SDS011;36879;51.416;6.678;2022-09-28T12:27:35;3.00;;;1.88;;
50900;SDS011;36879;51.416;6.678;2022-09-28T12:35:14;1.70;;;1.38;;
50900;SDS011;36879;51.416;6.678;2022-09-28T12:59:03;2.80;;;1.63;;
50900;SDS011;36879;51.416;6.678;2022-09-28T13:09:23;2.78;;;1.48;;
50900;SDS011;36879;51.416;6.678;2022-09-28T13:12:00;3.90;;;2.53;;
50900;SDS011;36879;51.416;6.678;2022-09-28T13:19:51;3.23;;;2.83;;
50900;SDS011;36879;51.416;6.678;2022-09-28T13:24:48;8.07;;;5.03;;
50900;SDS011;36879;51.416;6.678;2022-09-28T13:27:38;7.63;;;5.55;;
50900;SDS011;36879;51.416;6.678;2022-09-28T13:30:04;9.82;;;6.97;;
50900;SDS011;36879;51.416;6.678;2022-09-28T13:32:31;10.23;;;8.10;;
50900;SDS011;36879;51.416;6.678;2022-09-28T13:34:58;7.75;;;6.53;;
50900;SDS011;36879;51.416;6.678;2022-09-28T13:37:29;8.13;;;6.57;;
50900;SDS011;36879;51.416;6.678;2022-09-28T13:39:56;9.68;;;6.93;;
50900;SDS011;36879;51.416;6.678;2022-09-28T13:45:01;12.30;;;6.50;;
50900;SDS011;36879;51.416;6.678;2022-09-28T14:00:49;9.98;;;7.00;;
50900;SDS011;36879;51.416;6.678;2022-09-28T14:06:02;7.40;;;4.78;;
50900;SDS011;36879;51.416;6.678;2022-09-28T14:08:30;6.22;;;5.53;;
50900;SDS011;36879;51.416;6.678;2022-09-28T14:16:24;7.80;;;4.32;;
50900;SDS011;36879;51.416;6.678;2022-09-28T14:18:53;4.93;;;3.28;;
50900;SDS011;36879;51.416;6.678;2022-09-28T14:31:27;1.13;;;0.90;;
50900;SDS011;36879;51.416;6.678;2022-09-28T14:33:57;1.13;;;0.70;;
50900;SDS011;36879;51.416;6.678;2022-09-28T14:36:30;2.15;;;1.10;;
50900;SDS011;36879;51.416;6.678;2022-09-28T14:39:18;3.55;;;1.30;;
50900;SDS011;36879;51.416;6.678;2022-09-28T14:42:07;1.77;;;1.30;;
50900;SDS011;36879;51.416;6.678;2022-09-28T14:50:00;1.65;;;1.00;;
50900;SDS011;36879;51.416;6.678;2022-09-28T14:52:41;2.45;;;1.40;;
50900;SDS011;36879;51.416;6.678;2022-09-28T14:55:10;2.35;;;1.20;;
50900;SDS011;36879;51.416;6.678;2022-09-28T14:57:37;2.40;;;1.15;;
50900;SDS011;36879;51.416;6.678;2022-09-28T15:00:47;2.03;;;1.38;;
50900;SDS011;36879;51.416;6.678;2022-09-28T15:02:58;3.63;;;1.83;;
50900;SDS011;36879;51.416;6.678;2022-09-28T15:05:29;3.75;;;2.13;;
50900;SDS011;36879;51.416;6.678;2022-09-28T15:07:55;7.63;;;3.78;;
50900;SDS011;36879;51.416;6.678;2022-09-28T15:12:49;4.30;;;2.67;;
50900;SDS011;36879;51.416;6.678;2022-09-28T15:15:29;7.97;;;2.80;;
50900;SDS011;36879;51.416;6.678;2022-09-28T15:17:59;4.28;;;2.22;;
50900;SDS011;36879;51.416;6.678;2022-09-28T15:20:36;3.78;;;2.25;;
50900;SDS011;36879;51.416;6.678;2022-09-28T15:23:04;3.17;;;2.20;;
50900;SDS011;36879;51.416;6.678;2022-09-28T15:25:50;2.90;;;2.28;;
50900;SDS011;36879;51.416;6.678;2022-09-28T15:28:17;2.85;;;2.00;;
50900;SDS011;36879;51.416;6.678;2022-09-28T15:30:43;5.13;;;3.13;;
50900;SDS011;36879;51.416;6.678;2022-09-28T15:33:29;2.97;;;1.90;;
50900;SDS011;36879;51.416;6.678;2022-09-28T15:36:16;8.52;;;3.72;;
50900;SDS011;36879;51.416;6.678;2022-09-28T15:38:45;7.78;;;4.35;;
50900;SDS011;36879;51.416;6.678;2022-09-28T15:41:15;6.30;;;3.90;;
50900;SDS011;36879;51.416;6.678;2022-09-28T15:43:41;6.82;;;4.63;;
50900;SDS011;36879;51.416;6.678;2022-09-28T15:46:10;4.25;;;2.20;;
50900;SDS011;36879;51.416;6.678;2022-09-28T15:48:51;3.35;;;2.22;;
50900;SDS011;36879;51.416;6.678;2022-09-28T15:51:18;3.95;;;1.80;;
50900;SDS011;36879;51.416;6.678;2022-09-28T15:53:52;4.97;;;1.90;;
50900;SDS011;36879;51.416;6.678;2022-09-28T15:56:20;2.67;;;1.63;;
50900;SDS011;36879;51.416;6.678;2022-09-28T16:01:33;3.03;;;1.40;;
50900;SDS011;36879;51.416;6.678;2022-09-28T16:09:31;1.98;;;1.35;;
50900;SDS011;36879;51.416;6.678;2022-09-28T16:11:58;2.80;;;1.10;;
50900;SDS011;36879;51.416;6.678;2022-09-28T16:14:32;4.88;;;1.70;;
50900;SDS011;36879;51.416;6.678;2022-09-28T16:16:59;2.85;;;1.80;;
50900;SDS011;36879;51.416;6.678;2022-09-28T16:19:34;3.65;;;2.72;;
50900;SDS011;36879;51.416;6.678;2022-09-28T16:22:02;5.32;;;2.70;;
50900;SDS011;36879;51.416;6.678;2022-09-28T16:24:30;3.97;;;2.58;;
50900;SDS011;36879;51.416;6.678;2022-09-28T16:26:58;4.35;;;3.00;;
50900;SDS011;36879;51.416;6.678;2022-09-28T16:29:31;3.97;;;2.30;;
50900;SDS011;36879;51.416;6.678;2022-09-28T16:34:46;10.90;;;3.67;;
50900;SDS011;36879;51.416;6.678;2022-09-28T16:37:25;6.72;;;2.88;;
50900;SDS011;36879;51.416;6.678;2022-09-28T16:39:55;8.35;;;3.00;;
50900;SDS011;36879;51.416;6.678;2022-09-28T16:42:26;6.13;;;3.35;;
50900;SDS011;36879;51.416;6.678;2022-09-28T16:44:52;6.13;;;3.58;;
50900;SDS011;36879;51.416;6.678;2022-09-28T16:47:20;4.05;;;2.72;;
50900;SDS011;36879;51.416;6.678;2022-09-28T16:49:47;5.43;;;3.00;;
50900;SDS011;36879;51.416;6.678;2022-09-28T16:52:13;4.78;;;2.75;;
50900;SDS011;36879;51.416;6.678;2022-09-28T16:55:02;5.10;;;2.88;;
50900;SDS011;36879;51.416;6.678;2022-09-28T16:57:43;2.90;;;1.90;;
50900;SDS011;36879;51.416;6.678;2022-09-28T17:00:13;2.95;;;2.25;;
50900;SDS011;36879;51.416;6.678;2022-09-28T17:02:44;8.65;;;3.72;;
50900;SDS011;36879;51.416;6.678;2022-09-28T17:05:10;5.35;;;3.85;;
50900;SDS011;36879;51.416;6.678;2022-09-28T17:07:37;10.20;;;7.68;;
50900;SDS011;36879;51.416;6.678;2022-09-28T17:10:32;19.15;;;11.57;;
50900;SDS011;36879;51.416;6.678;2022-09-28T17:12:52;12.60;;;9.57;;
50900;SDS011;36879;51.416;6.678;2022-09-28T17:15:18;8.75;;;4.25;;
50900;SDS011;36879;51.416;6.678;2022-09-28T17:17:45;5.43;;;3.47;;
50900;SDS011;36879;51.416;6.678;2022-09-28T17:22:51;9.80;;;7.50;;
50900;SDS011;36879;51.416;6.678;2022-09-28T17:26:38;12.10;;;8.85;;
50900;SDS011;36879;51.416;6.678;2022-09-28T17:30:14;7.95;;;6.45;;
50900;SDS011;36879;51.416;6.678;2022-09-28T17:33:50;8.75;;;6.90;;